createdAt,value
2023-04-20T00:00:12.697Z,59.42
2023-04-20T00:01:12.680Z,59.24
2023-04-20T00:02:12.787Z,58.17
2023-04-20T00:03:12.880Z,56.58
2023-04-20T00:04:12.699Z,60.90
2023-04-20T00:05:12.813Z,55.76
2023-04-20T00:06:12.655Z,56.13
2023-04-20T00:07:12.626Z,54.63
2023-04-20T00:08:12.667Z,59.45
2023-04-20T00:09:12.640Z,58.16
2023-04-20T00:10:12.638Z,54.61
2023-04-20T00:11:12.618Z,56.08
2023-04-20T00:12:12.635Z,54.33
2023-04-20T00:13:12.608Z,55.16
2023-04-20T00:14:12.621Z,56.84
2023-04-20T00:15:12.592Z,55.85
2023-04-20T00:16:12.612Z,57.04
2023-04-20T00:17:12.607Z,61.07
2023-04-20T00:18:12.621Z,61.06
2023-04-20T00:19:12.574Z,60.23
2023-04-20T00:20:12.581Z,57.24
2023-04-20T00:21:12.563Z,57.53
2023-04-20T00:22:12.579Z,59.91
2023-04-20T00:23:12.579Z,58.34
2023-04-20T00:24:12.563Z,59.04
2023-04-20T00:25:12.565Z,58.26
2023-04-20T00:26:12.554Z,55.30
2023-04-20T00:27:12.531Z,59.98
2023-04-20T00:28:12.583Z,61.19
2023-04-20T00:29:12.524Z,57.50
2023-04-20T00:30:12.534Z,56.84
2023-04-20T00:31:12.595Z,58.26
2023-04-20T00:32:12.533Z,57.17
2023-04-20T00:33:12.500Z,58.16
2023-04-20T00:34:12.529Z,58.00
2023-04-20T00:35:12.475Z,57.21
2023-04-20T00:36:12.495Z,57.68
2023-04-20T00:37:12.497Z,58.92
2023-04-20T00:38:12.494Z,55.07
2023-04-20T00:39:12.458Z,58.33
2023-04-20T00:40:12.467Z,57.55
2023-04-20T00:41:12.446Z,56.09
2023-04-20T00:42:12.460Z,56.81
2023-04-20T00:43:12.461Z,55.49
2023-04-20T00:44:12.474Z,59.22
2023-04-20T00:45:12.448Z,56.13
2023-04-20T00:46:12.516Z,59.32
2023-04-20T00:47:12.420Z,57.14
2023-04-20T00:48:12.458Z,57.68
2023-04-20T00:49:12.419Z,54.64
2023-04-20T00:50:12.448Z,55.83
2023-04-20T00:51:12.436Z,57.36
2023-04-20T00:52:12.423Z,57.37
2023-04-20T00:53:12.405Z,57.87
2023-04-20T00:54:12.406Z,55.95
2023-04-20T00:55:12.381Z,59.89
2023-04-20T00:56:12.403Z,56.50
2023-04-20T00:57:12.372Z,59.41
2023-04-20T00:58:12.423Z,56.37
2023-04-20T00:59:12.389Z,58.03
2023-04-20T01:00:12.362Z,54.41
2023-04-20T01:01:12.410Z,59.65
2023-04-20T01:02:12.439Z,59.43
2023-04-20T01:03:12.551Z,54.79
2023-04-20T01:04:12.414Z,57.12
2023-04-20T01:05:12.322Z,60.52
2023-04-20T01:06:12.328Z,58.46
2023-04-20T01:07:12.336Z,57.77
2023-04-20T01:08:12.331Z,57.13
2023-04-20T01:09:12.335Z,59.49
2023-04-20T01:10:12.344Z,57.40
2023-04-20T01:11:12.287Z,61.22
2023-04-20T01:12:12.315Z,61.48
2023-04-20T01:13:12.330Z,59.22
2023-04-20T01:14:12.304Z,57.73
2023-04-20T01:15:12.265Z,58.21
2023-04-20T01:16:12.420Z,56.68
2023-04-20T01:17:12.261Z,61.69
2023-04-20T01:18:12.277Z,59.03
2023-04-20T01:19:12.268Z,59.99
2023-04-20T01:20:12.281Z,57.64
2023-04-20T01:21:12.232Z,61.18
2023-04-20T01:22:12.263Z,56.69
2023-04-20T01:23:12.237Z,57.95
2023-04-20T01:24:12.260Z,57.52
2023-04-20T01:25:12.233Z,60.79
2023-04-20T01:26:12.272Z,60.74
2023-04-20T01:27:12.207Z,61.88
2023-04-20T01:28:12.219Z,60.13
2023-04-20T01:29:12.211Z,60.31
2023-04-20T01:30:12.207Z,59.46
2023-04-20T01:31:12.204Z,59.74
2023-04-20T01:32:12.236Z,59.50
2023-04-20T01:33:12.176Z,58.47
2023-04-20T01:34:12.192Z,60.63
2023-04-20T01:35:12.215Z,60.22
2023-04-20T01:36:12.215Z,57.48
2023-04-20T01:37:12.158Z,59.53
2023-04-20T01:38:12.171Z,60.54
2023-04-20T01:39:12.180Z,59.25
2023-04-20T01:40:12.168Z,55.00
2023-04-20T01:41:12.143Z,61.77
2023-04-20T01:42:12.176Z,58.76
2023-04-20T01:43:12.143Z,60.25
2023-04-20T01:44:12.131Z,59.49
2023-04-20T01:45:12.123Z,58.97
2023-04-20T01:46:12.152Z,60.93
2023-04-20T01:47:12.124Z,61.38
2023-04-20T01:48:12.134Z,60.40
2023-04-20T01:49:12.091Z,60.53
2023-04-20T01:50:12.129Z,58.54
2023-04-20T01:51:12.081Z,59.65
2023-04-20T01:52:12.095Z,59.65
2023-04-20T01:53:12.089Z,58.38
2023-04-20T01:54:12.093Z,59.99
2023-04-20T01:55:12.076Z,59.86
2023-04-20T01:56:12.093Z,60.88
2023-04-20T01:57:12.081Z,61.99
2023-04-20T01:58:12.071Z,60.81
2023-04-20T01:59:12.071Z,56.68
2023-04-20T02:00:12.054Z,60.17
2023-04-20T02:01:12.115Z,62.58
2023-04-20T02:02:12.164Z,60.23
2023-04-20T02:03:12.163Z,59.02
2023-04-20T02:04:12.068Z,60.84
2023-04-20T02:05:12.000Z,60.93
2023-04-20T02:06:12.032Z,61.63
2023-04-20T02:07:12.016Z,58.20
2023-04-20T02:08:12.016Z,61.14
2023-04-20T02:09:12.003Z,63.54
2023-04-20T02:10:12.012Z,62.41
2023-04-20T02:11:11.970Z,60.31
2023-04-20T02:12:11.996Z,61.45
2023-04-20T02:13:11.977Z,62.14
2023-04-20T02:14:11.993Z,60.82
2023-04-20T02:15:12.905Z,59.71
2023-04-20T02:16:11.973Z,59.27
2023-04-20T02:17:11.960Z,57.94
2023-04-20T02:18:12.011Z,61.08
2023-04-20T02:19:11.949Z,60.07
2023-04-20T02:20:11.974Z,62.85
2023-04-20T02:21:11.906Z,59.11
2023-04-20T02:22:11.955Z,61.29
2023-04-20T02:23:11.903Z,61.17
2023-04-20T02:24:11.947Z,60.22
2023-04-20T02:25:11.885Z,60.62
2023-04-20T02:26:11.943Z,60.06
2023-04-20T02:27:11.888Z,63.43
2023-04-20T02:28:11.903Z,59.08
2023-04-20T02:29:11.898Z,61.85
2023-04-20T02:30:11.884Z,61.90
2023-04-20T02:31:11.904Z,63.49
2023-04-20T02:32:11.898Z,63.28
2023-04-20T02:33:11.869Z,58.86
2023-04-20T02:34:11.879Z,60.36
2023-04-20T02:35:11.855Z,62.78
2023-04-20T02:36:11.845Z,64.56
2023-04-20T02:37:11.830Z,59.81
2023-04-20T02:38:11.839Z,61.67
2023-04-20T02:39:11.824Z,62.51
2023-04-20T02:40:11.860Z,61.52
2023-04-20T02:41:11.806Z,64.94
2023-04-20T02:42:11.818Z,59.91
2023-04-20T02:43:11.795Z,61.86
2023-04-20T02:44:11.803Z,64.07
2023-04-20T02:45:11.780Z,63.67
2023-04-20T02:46:11.871Z,63.76
2023-04-20T02:47:11.771Z,64.04
2023-04-20T02:48:11.783Z,63.11
2023-04-20T02:49:11.780Z,62.29
2023-04-20T02:50:11.783Z,59.04
2023-04-20T02:51:11.749Z,60.01
2023-04-20T02:52:11.771Z,61.85
2023-04-20T02:53:11.768Z,63.36
2023-04-20T02:54:11.763Z,63.12
2023-04-20T02:55:11.741Z,61.28
2023-04-20T02:56:11.727Z,63.11
2023-04-20T02:57:11.749Z,64.09
2023-04-20T02:58:11.728Z,63.38
2023-04-20T02:59:11.739Z,63.66
2023-04-20T03:00:11.718Z,64.39
2023-04-20T03:01:11.685Z,61.90
2023-04-20T03:02:11.798Z,63.19
2023-04-20T03:03:11.827Z,61.64
2023-04-20T03:04:11.843Z,60.99
2023-04-20T03:05:11.691Z,63.38
2023-04-20T03:06:11.684Z,63.16
2023-04-20T03:07:11.663Z,63.25
2023-04-20T03:08:11.693Z,63.15
2023-04-20T03:09:11.649Z,64.37
2023-04-20T03:10:11.670Z,62.69
2023-04-20T03:11:11.640Z,63.98
2023-04-20T03:12:11.650Z,64.18
2023-04-20T03:13:11.628Z,62.96
2023-04-20T03:14:11.659Z,64.00
2023-04-20T03:15:11.615Z,61.49
2023-04-20T03:16:11.636Z,63.78
2023-04-20T03:17:11.597Z,65.08
2023-04-20T03:18:11.634Z,63.42
2023-04-20T03:19:11.618Z,62.71
2023-04-20T03:20:11.610Z,63.15
2023-04-20T03:21:11.597Z,63.48
2023-04-20T03:22:11.588Z,64.57
2023-04-20T03:23:11.601Z,64.64
2023-04-20T03:24:11.593Z,62.29
2023-04-20T03:25:11.553Z,64.25
2023-04-20T03:26:11.569Z,63.77
2023-04-20T03:27:11.544Z,64.45
2023-04-20T03:28:11.553Z,65.22
2023-04-20T03:29:11.539Z,63.36
2023-04-20T03:30:11.550Z,64.46
2023-04-20T03:31:11.531Z,65.26
2023-04-20T03:32:11.706Z,64.33
2023-04-20T03:33:11.564Z,65.56
2023-04-20T03:34:11.530Z,65.96
2023-04-20T03:35:11.495Z,66.68
2023-04-20T03:36:11.509Z,64.68
2023-04-20T03:37:11.485Z,64.75
2023-04-20T03:38:11.511Z,64.80
2023-04-20T03:39:11.497Z,66.21
2023-04-20T03:40:11.488Z,67.53
2023-04-20T03:41:11.463Z,65.66
2023-04-20T03:42:11.473Z,65.88
2023-04-20T03:43:11.451Z,66.10
2023-04-20T03:44:11.459Z,67.62
2023-04-20T03:45:11.452Z,68.26
2023-04-20T03:46:11.499Z,67.46
2023-04-20T03:47:11.429Z,65.18
2023-04-20T03:48:11.429Z,65.23
2023-04-20T03:49:11.440Z,64.98
2023-04-20T03:50:11.429Z,65.22
2023-04-20T03:51:11.402Z,64.52
2023-04-20T03:52:11.411Z,65.36
2023-04-20T03:53:11.394Z,63.97
2023-04-20T03:54:11.411Z,66.32
2023-04-20T03:55:11.403Z,66.73
2023-04-20T03:56:11.396Z,63.50
2023-04-20T03:57:11.362Z,65.51
2023-04-20T03:58:11.393Z,64.32
2023-04-20T03:59:11.374Z,66.31
2023-04-20T04:00:11.375Z,66.20
2023-04-20T04:01:11.371Z,66.90
2023-04-20T04:02:11.392Z,63.57
2023-04-20T04:03:11.464Z,66.62
2023-04-20T04:04:11.677Z,66.31
2023-04-20T04:05:11.375Z,65.48
2023-04-20T04:06:11.369Z,66.18
2023-04-20T04:07:11.330Z,66.06
2023-04-20T04:08:11.333Z,65.25
2023-04-20T04:09:11.326Z,66.60
2023-04-20T04:10:11.331Z,66.86
2023-04-20T04:11:11.302Z,66.38
2023-04-20T04:12:11.331Z,68.55
2023-04-20T04:13:11.286Z,66.71
2023-04-20T04:14:11.312Z,66.67
2023-04-20T04:15:11.275Z,66.34
2023-04-20T04:16:11.285Z,66.47
2023-04-20T04:17:11.393Z,65.77
2023-04-20T04:18:11.282Z,66.41
2023-04-20T04:19:11.259Z,66.05
2023-04-20T04:20:11.284Z,65.98
2023-04-20T04:21:11.250Z,66.96
2023-04-20T04:22:11.450Z,67.45
2023-04-20T04:23:11.242Z,65.39
2023-04-20T04:24:11.269Z,66.95
2023-04-20T04:25:11.237Z,65.58
2023-04-20T04:26:11.233Z,67.02
2023-04-20T04:27:11.240Z,65.83
2023-04-20T04:28:11.289Z,66.86
2023-04-20T04:29:11.212Z,66.99
2023-04-20T04:30:11.257Z,68.45
2023-04-20T04:31:11.232Z,67.60
2023-04-20T04:32:11.209Z,65.73
2023-04-20T04:33:11.206Z,67.05
2023-04-20T04:34:11.196Z,68.12
2023-04-20T04:35:11.192Z,66.25
2023-04-20T04:36:11.204Z,66.89
2023-04-20T04:37:11.162Z,66.39
2023-04-20T04:38:11.189Z,66.98
2023-04-20T04:39:11.181Z,65.37
2023-04-20T04:40:11.170Z,65.07
2023-04-20T04:41:11.142Z,66.14
2023-04-20T04:42:11.182Z,67.25
2023-04-20T04:43:11.156Z,66.86
2023-04-20T04:44:11.150Z,67.83
2023-04-20T04:45:11.123Z,66.79
2023-04-20T04:46:11.222Z,65.75
2023-04-20T04:47:11.110Z,66.26
2023-04-20T04:48:11.150Z,66.74
2023-04-20T04:49:11.114Z,67.09
2023-04-20T04:50:11.128Z,65.90
2023-04-20T04:51:11.103Z,67.87
2023-04-20T04:52:11.113Z,66.46
2023-04-20T04:53:11.085Z,66.96
2023-04-20T04:54:11.115Z,67.71
2023-04-20T04:55:11.133Z,68.05
2023-04-20T04:56:11.110Z,66.82
2023-04-20T04:57:11.059Z,66.49
2023-04-20T04:58:11.075Z,67.52
2023-04-20T04:59:11.056Z,67.02
2023-04-20T05:00:11.066Z,67.80
2023-04-20T05:01:11.068Z,67.21
2023-04-20T05:02:11.157Z,67.23
2023-04-20T05:03:11.086Z,66.09
2023-04-20T05:04:11.261Z,66.72
2023-04-20T05:05:11.024Z,66.55
2023-04-20T05:06:11.046Z,66.01
2023-04-20T05:07:11.024Z,66.22
2023-04-20T05:08:11.019Z,66.49
2023-04-20T05:09:10.996Z,67.16
2023-04-20T05:10:11.431Z,67.24
2023-04-20T05:11:10.997Z,66.27
2023-04-20T05:12:10.996Z,67.13
2023-04-20T05:13:10.974Z,66.30
2023-04-20T05:14:10.990Z,67.61
2023-04-20T05:15:10.958Z,68.57
2023-04-20T05:16:11.047Z,66.72
2023-04-20T05:17:10.957Z,67.66
2023-04-20T05:18:10.956Z,66.68
2023-04-20T05:19:10.937Z,68.38
2023-04-20T05:20:10.958Z,68.64
2023-04-20T05:21:10.957Z,67.80
2023-04-20T05:22:10.965Z,66.77
2023-04-20T05:23:10.939Z,66.49
2023-04-20T05:24:10.931Z,67.08
2023-04-20T05:25:13.292Z,66.74
2023-04-20T05:26:10.937Z,66.12
2023-04-20T05:27:10.896Z,66.30
2023-04-20T05:28:10.923Z,68.81
2023-04-20T05:29:10.880Z,67.37
2023-04-20T05:30:20.325Z,67.27
2023-04-20T05:31:11.898Z,67.91
2023-04-20T05:32:10.989Z,68.71
2023-04-20T05:33:10.884Z,67.54
2023-04-20T05:34:10.903Z,67.86
2023-04-20T05:35:10.911Z,68.86
2023-04-20T05:36:10.878Z,68.68
2023-04-20T05:37:10.844Z,67.27
2023-04-20T05:38:10.864Z,65.57
2023-04-20T05:39:10.838Z,67.63
2023-04-20T05:40:10.846Z,67.92
2023-04-20T05:41:10.840Z,65.61
2023-04-20T05:42:10.849Z,67.51
2023-04-20T05:43:10.844Z,68.57
2023-04-20T05:44:10.840Z,68.86
2023-04-20T05:45:10.812Z,66.28
2023-04-20T05:46:10.888Z,66.03
2023-04-20T05:47:10.804Z,66.87
2023-04-20T05:48:10.820Z,65.68
2023-04-20T05:49:10.804Z,68.30
2023-04-20T05:50:10.864Z,66.45
2023-04-20T05:51:10.799Z,66.37
2023-04-20T05:52:10.811Z,67.43
2023-04-20T05:53:10.762Z,66.09
2023-04-20T05:54:10.803Z,68.17
2023-04-20T05:55:10.754Z,65.34
2023-04-20T05:56:10.778Z,65.79
2023-04-20T05:57:10.740Z,67.10
2023-04-20T05:58:10.774Z,67.17
2023-04-20T05:59:10.736Z,66.67
2023-04-20T06:00:10.746Z,66.50
2023-04-20T06:01:10.726Z,65.63
2023-04-20T06:02:10.834Z,65.24
2023-04-20T06:03:10.959Z,67.13
2023-04-20T06:04:10.926Z,67.35
2023-04-20T06:05:10.890Z,67.84
2023-04-20T06:06:10.719Z,66.04
2023-04-20T06:07:10.692Z,66.97
2023-04-20T06:08:10.712Z,65.53
2023-04-20T06:09:10.701Z,66.03
2023-04-20T06:10:10.715Z,67.90
2023-04-20T06:11:10.680Z,64.95
2023-04-20T06:12:10.689Z,66.92
2023-04-20T06:13:10.662Z,65.50
2023-04-20T06:14:10.692Z,66.98
2023-04-20T06:15:10.661Z,66.42
2023-04-20T06:16:10.711Z,66.67
2023-04-20T06:17:10.634Z,67.80
2023-04-20T06:18:10.672Z,66.31
2023-04-20T06:19:10.625Z,66.79
2023-04-20T06:20:10.652Z,67.54
2023-04-20T06:21:10.623Z,66.00
2023-04-20T06:22:10.629Z,65.35
2023-04-20T06:23:10.629Z,66.52
2023-04-20T06:24:10.617Z,65.39
2023-04-20T06:25:10.690Z,65.87
2023-04-20T06:26:10.677Z,66.02
2023-04-20T06:27:10.598Z,66.31
2023-04-20T06:28:10.596Z,65.78
2023-04-20T06:29:10.574Z,65.17
2023-04-20T06:30:10.649Z,66.02
2023-04-20T06:31:10.624Z,66.64
2023-04-20T06:32:10.596Z,66.67
2023-04-20T06:33:12.466Z,66.77
2023-04-20T06:34:10.577Z,67.10
2023-04-20T06:35:10.568Z,66.74
2023-04-20T06:36:10.555Z,66.34
2023-04-20T06:37:10.532Z,66.68
2023-04-20T06:38:10.556Z,66.50
2023-04-20T06:39:10.545Z,66.01
2023-04-20T06:40:10.570Z,67.90
2023-04-20T06:41:10.510Z,68.48
2023-04-20T06:42:10.519Z,66.11
2023-04-20T06:43:10.524Z,66.53
2023-04-20T06:44:10.512Z,65.79
2023-04-20T06:45:10.487Z,64.04
2023-04-20T06:46:10.530Z,65.47
2023-04-20T06:47:10.563Z,66.01
2023-04-20T06:48:24.013Z,66.35
2023-04-20T06:49:11.484Z,65.87
2023-04-20T06:50:10.528Z,66.65
2023-04-20T06:51:10.459Z,67.00
2023-04-20T06:52:10.461Z,68.30
2023-04-20T06:53:10.458Z,67.75
2023-04-20T06:54:10.471Z,67.22
2023-04-20T06:55:10.426Z,67.15
2023-04-20T06:56:10.462Z,68.05
2023-04-20T06:57:10.442Z,67.84
2023-04-20T06:58:10.429Z,68.12
2023-04-20T06:59:10.432Z,66.81
2023-04-20T07:00:10.433Z,68.05
2023-04-20T07:01:10.423Z,66.39
2023-04-20T07:02:10.618Z,66.63
2023-04-20T07:03:10.532Z,65.98
2023-04-20T07:04:10.597Z,66.44
2023-04-20T07:05:10.375Z,67.50
2023-04-20T07:06:10.398Z,68.28
2023-04-20T07:07:10.409Z,66.90
2023-04-20T07:08:10.391Z,65.06
2023-04-20T07:09:10.367Z,66.26
2023-04-20T07:10:10.371Z,66.10
2023-04-20T07:11:10.344Z,66.30
2023-04-20T07:12:10.368Z,67.39
2023-04-20T07:13:10.352Z,66.92
2023-04-20T07:14:10.355Z,66.06
2023-04-20T07:15:10.334Z,66.82
2023-04-20T07:16:10.470Z,67.06
2023-04-20T07:17:10.314Z,66.14
2023-04-20T07:18:10.369Z,66.40
2023-04-20T07:19:10.330Z,66.83
2023-04-20T07:20:10.341Z,68.35
2023-04-20T07:21:10.307Z,68.79
2023-04-20T07:22:10.311Z,67.60
2023-04-20T07:23:10.326Z,66.43
2023-04-20T07:24:10.296Z,65.71
2023-04-20T07:25:10.301Z,66.13
2023-04-20T07:26:10.288Z,66.48
2023-04-20T07:27:10.292Z,66.25
2023-04-20T07:28:10.288Z,64.91
2023-04-20T07:29:10.299Z,68.07
2023-04-20T07:30:10.275Z,67.28
2023-04-20T07:31:10.308Z,65.55
2023-04-20T07:32:10.311Z,67.40
2023-04-20T07:33:10.314Z,64.85
2023-04-20T07:34:10.248Z,64.30
2023-04-20T07:35:10.258Z,62.16
2023-04-20T07:36:10.290Z,64.11
2023-04-20T07:37:10.249Z,64.08
2023-04-20T07:38:10.249Z,63.09
2023-04-20T07:39:10.215Z,66.37
2023-04-20T07:40:10.217Z,66.30
2023-04-20T07:41:10.219Z,66.52
2023-04-20T07:42:10.211Z,65.01
2023-04-20T07:43:10.233Z,65.12
2023-04-20T07:44:10.223Z,66.25
2023-04-20T07:45:10.217Z,67.40
2023-04-20T07:46:10.214Z,66.80
2023-04-20T07:47:10.171Z,65.84
2023-04-20T07:48:10.230Z,65.44
2023-04-20T07:49:10.167Z,66.87
2023-04-20T07:50:10.183Z,65.54
2023-04-20T07:51:10.160Z,67.51
2023-04-20T07:52:16.553Z,66.01
2023-04-20T07:53:11.221Z,66.13
2023-04-20T07:54:10.142Z,67.17
2023-04-20T07:55:10.120Z,66.90
2023-04-20T07:56:10.152Z,66.81
2023-04-20T07:57:10.134Z,64.71
2023-04-20T07:58:10.124Z,66.31
2023-04-20T07:59:10.110Z,66.27
2023-04-20T08:00:10.112Z,67.17
2023-04-20T08:01:10.181Z,66.95
2023-04-20T08:02:10.162Z,65.57
2023-04-20T08:03:10.448Z,65.98
2023-04-20T08:04:10.387Z,66.53
2023-04-20T08:05:10.356Z,65.00
2023-04-20T08:06:10.094Z,66.63
2023-04-20T08:07:10.072Z,66.17
2023-04-20T08:08:10.074Z,67.20
2023-04-20T08:09:11.968Z,68.63
2023-04-20T08:10:10.570Z,68.22
2023-04-20T08:11:10.037Z,70.20
2023-04-20T08:12:10.066Z,66.37
2023-04-20T08:13:10.030Z,68.85
2023-04-20T08:14:10.063Z,68.05
2023-04-20T08:15:10.111Z,68.03
2023-04-20T08:16:10.101Z,67.95
2023-04-20T08:17:10.018Z,69.04
2023-04-20T08:18:10.058Z,68.44
2023-04-20T08:19:10.017Z,67.67
2023-04-20T08:20:10.083Z,68.35
2023-04-20T08:21:09.981Z,63.84
2023-04-20T08:22:09.990Z,65.57
2023-04-20T08:23:09.961Z,66.07
2023-04-20T08:24:09.978Z,65.95
2023-04-20T08:25:09.981Z,67.32
2023-04-20T08:26:09.979Z,65.04
2023-04-20T08:27:09.988Z,64.50
2023-04-20T08:28:15.344Z,67.48
2023-04-20T08:29:10.960Z,67.90
2023-04-20T08:30:09.944Z,68.56
2023-04-20T08:31:09.949Z,70.93
2023-04-20T08:32:09.941Z,69.55
2023-04-20T08:33:09.948Z,65.84
2023-04-20T08:34:09.919Z,66.09
2023-04-20T08:35:09.897Z,68.48
2023-04-20T08:36:09.933Z,69.59
2023-04-20T08:37:09.886Z,67.77
2023-04-20T08:38:09.979Z,67.55
2023-04-20T08:39:09.864Z,67.94
2023-04-20T08:40:09.874Z,67.30
2023-04-20T08:41:09.875Z,66.45
2023-04-20T08:42:09.874Z,65.06
2023-04-20T08:43:09.848Z,66.24
2023-04-20T08:44:09.858Z,64.99
2023-04-20T08:45:09.869Z,63.29
2023-04-20T08:46:09.897Z,66.63
2023-04-20T08:47:09.826Z,64.86
2023-04-20T08:48:09.889Z,64.58
2023-04-20T08:49:09.838Z,68.46
2023-04-20T08:50:09.891Z,69.27
2023-04-20T08:51:09.803Z,69.73
2023-04-20T08:52:09.811Z,69.46
2023-04-20T08:53:09.810Z,67.58
2023-04-20T08:54:09.851Z,67.70
2023-04-20T08:55:09.798Z,66.04
2023-04-20T08:56:09.826Z,66.61
2023-04-20T08:57:09.795Z,66.27
2023-04-20T08:58:09.784Z,65.33
2023-04-20T08:59:09.768Z,67.53
2023-04-20T09:00:10.982Z,66.57
2023-04-20T09:01:09.825Z,67.11
2023-04-20T09:02:09.807Z,64.91
2023-04-20T09:03:09.934Z,63.30
2023-04-20T09:04:10.120Z,65.20
2023-04-20T09:05:09.746Z,66.88
2023-04-20T09:06:09.740Z,66.62
2023-04-20T09:07:09.747Z,68.01
2023-04-20T09:08:09.736Z,65.81
2023-04-20T09:09:09.722Z,68.03
2023-04-20T09:10:09.713Z,65.81
2023-04-20T09:11:09.700Z,67.54
2023-04-20T09:12:09.792Z,68.06
2023-04-20T09:13:09.707Z,64.21
2023-04-20T09:14:09.684Z,66.98
2023-04-20T09:15:09.692Z,66.54
2023-04-20T09:16:09.762Z,66.51
2023-04-20T09:17:09.660Z,65.46
2023-04-20T09:18:09.707Z,64.78
2023-04-20T09:19:10.458Z,64.55
2023-04-20T09:20:09.692Z,64.88
2023-04-20T09:21:09.629Z,66.60
2023-04-20T09:22:09.651Z,64.85
2023-04-20T09:23:09.619Z,66.62
2023-04-20T09:24:09.647Z,68.34
2023-04-20T09:25:09.632Z,66.94
2023-04-20T09:26:09.633Z,66.55
2023-04-20T09:27:09.619Z,66.79
2023-04-20T09:28:10.047Z,66.67
2023-04-20T09:29:09.599Z,62.94
2023-04-20T09:30:09.603Z,64.07
2023-04-20T09:31:09.602Z,64.37
2023-04-20T09:32:09.652Z,59.59
2023-04-20T09:33:09.611Z,60.89
2023-04-20T09:34:09.618Z,62.62
2023-04-20T09:35:09.578Z,64.61
2023-04-20T09:36:09.565Z,64.01
2023-04-20T09:37:09.545Z,64.27
2023-04-20T09:38:09.558Z,63.91
2023-04-20T09:39:09.558Z,64.97
2023-04-20T09:40:09.566Z,63.33
2023-04-20T09:41:09.524Z,66.18
2023-04-20T09:42:09.540Z,65.15
2023-04-20T09:43:09.516Z,64.57
2023-04-20T09:44:09.526Z,67.22
2023-04-20T09:45:09.521Z,65.09
2023-04-20T09:46:09.564Z,63.35
2023-04-20T09:47:09.483Z,64.61
2023-04-20T09:48:09.491Z,65.30
2023-04-20T09:49:09.489Z,63.99
2023-04-20T09:50:22.864Z,66.40
2023-04-20T09:51:10.467Z,66.24
2023-04-20T09:52:09.484Z,64.93
2023-04-20T09:53:09.504Z,69.26
2023-04-20T09:54:09.471Z,64.46
2023-04-20T09:55:09.439Z,65.59
2023-04-20T09:56:09.443Z,65.91
2023-04-20T09:57:09.425Z,67.75
2023-04-20T09:58:09.425Z,66.09
2023-04-20T09:59:09.465Z,66.98
2023-04-20T10:00:09.415Z,64.38
2023-04-20T10:01:09.431Z,63.99
2023-04-20T10:02:09.473Z,65.68
2023-04-20T10:03:09.545Z,66.55
2023-04-20T10:04:09.684Z,67.86
2023-04-20T10:05:09.375Z,65.65
2023-04-20T10:06:09.392Z,64.16
2023-04-20T10:07:09.360Z,64.81
2023-04-20T10:08:09.399Z,65.16
2023-04-20T10:09:09.359Z,63.04
2023-04-20T10:10:09.383Z,63.36
2023-04-20T10:11:09.337Z,65.52
2023-04-20T10:12:09.356Z,67.40
2023-04-20T10:13:09.330Z,64.76
2023-04-20T10:14:09.342Z,66.07
2023-04-20T10:15:09.317Z,66.14
2023-04-20T10:16:09.543Z,65.11
2023-04-20T10:17:09.692Z,64.38
2023-04-20T10:18:09.430Z,61.84
2023-04-20T10:19:09.382Z,64.19
2023-04-20T10:20:09.311Z,65.84
2023-04-20T10:21:09.325Z,64.75
2023-04-20T10:22:09.289Z,64.95
2023-04-20T10:23:09.297Z,64.75
2023-04-20T10:24:09.281Z,65.71
2023-04-20T10:25:09.250Z,65.25
2023-04-20T10:26:09.266Z,63.77
2023-04-20T10:27:09.247Z,67.16
2023-04-20T10:28:09.258Z,65.00
2023-04-20T10:29:09.257Z,64.95
2023-04-20T10:30:09.250Z,66.87
2023-04-20T10:31:09.275Z,66.35
2023-04-20T10:32:09.265Z,66.70
2023-04-20T10:33:09.249Z,65.53
2023-04-20T10:34:09.244Z,64.07
2023-04-20T10:35:09.215Z,62.96
2023-04-20T10:36:09.297Z,64.48
2023-04-20T10:37:09.197Z,64.92
2023-04-20T10:38:09.205Z,62.79
2023-04-20T10:39:09.175Z,63.24
2023-04-20T10:40:09.192Z,65.42
2023-04-20T10:41:09.202Z,65.37
2023-04-20T10:42:09.188Z,65.95
2023-04-20T10:43:09.166Z,64.06
2023-04-20T10:44:09.177Z,65.11
2023-04-20T10:45:09.166Z,63.91
2023-04-20T10:46:09.198Z,63.26
2023-04-20T10:47:09.119Z,67.80
2023-04-20T10:48:09.227Z,63.53
2023-04-20T10:49:09.129Z,63.73
2023-04-20T10:50:09.142Z,62.54
2023-04-20T10:51:09.108Z,66.61
2023-04-20T10:52:09.111Z,65.86
2023-04-20T10:53:09.094Z,63.60
2023-04-20T10:54:09.091Z,65.17
2023-04-20T10:55:09.069Z,63.78
2023-04-20T10:56:09.096Z,63.65
2023-04-20T10:57:09.050Z,62.76
2023-04-20T10:58:09.072Z,64.27
2023-04-20T10:59:09.053Z,64.15
2023-04-20T11:00:09.057Z,65.10
2023-04-20T11:01:09.038Z,62.84
2023-04-20T11:02:09.170Z,62.71
2023-04-20T11:03:09.097Z,64.12
2023-04-20T11:04:09.135Z,60.94
2023-04-20T11:05:09.071Z,63.91
2023-04-20T11:06:09.019Z,63.76
2023-04-20T11:07:09.102Z,61.19
2023-04-20T11:08:08.991Z,63.39
2023-04-20T11:09:08.976Z,62.80
2023-04-20T11:10:08.994Z,64.35
2023-04-20T11:11:10.255Z,63.21
2023-04-20T11:12:09.017Z,64.17
2023-04-20T11:13:08.936Z,62.45
2023-04-20T11:14:08.960Z,64.23
2023-04-20T11:15:08.929Z,64.63
2023-04-20T11:16:08.977Z,63.97
2023-04-20T11:17:08.973Z,63.38
2023-04-20T11:18:09.012Z,64.98
2023-04-20T11:19:08.910Z,64.77
2023-04-20T11:20:08.923Z,63.88
2023-04-20T11:21:08.884Z,64.08
2023-04-20T11:22:08.913Z,64.34
2023-04-20T11:23:08.878Z,63.51
2023-04-20T11:24:08.913Z,62.71
2023-04-20T11:25:08.879Z,62.96
2023-04-20T11:26:08.865Z,63.70
2023-04-20T11:27:08.840Z,62.48
2023-04-20T11:28:08.956Z,63.06
2023-04-20T11:29:08.829Z,66.40
2023-04-20T11:30:08.836Z,66.33
2023-04-20T11:31:08.867Z,64.27
2023-04-20T11:32:08.987Z,63.37
2023-04-20T11:33:08.983Z,61.08
2023-04-20T11:34:08.812Z,62.54
2023-04-20T11:35:08.812Z,63.25
2023-04-20T11:36:08.822Z,63.62
2023-04-20T11:37:08.788Z,63.20
2023-04-20T11:38:08.779Z,65.83
2023-04-20T11:39:08.763Z,64.86
2023-04-20T11:40:08.764Z,63.72
2023-04-20T11:41:08.738Z,62.59
2023-04-20T11:42:08.771Z,64.38
2023-04-20T11:43:08.779Z,63.87
2023-04-20T11:44:08.741Z,61.05
2023-04-20T11:45:08.708Z,63.62
2023-04-20T11:46:08.738Z,62.50
2023-04-20T11:47:08.699Z,62.84
2023-04-20T11:48:08.830Z,64.04
2023-04-20T11:49:08.706Z,64.52
2023-04-20T11:50:08.708Z,64.12
2023-04-20T11:51:08.667Z,64.77
2023-04-20T11:52:08.711Z,63.85
2023-04-20T11:53:08.655Z,64.31
2023-04-20T11:54:08.665Z,62.85
2023-04-20T11:55:08.656Z,64.33
2023-04-20T11:56:08.640Z,64.07
2023-04-20T11:57:08.619Z,62.14
2023-04-20T11:58:08.638Z,63.17
2023-04-20T11:59:08.600Z,61.74
2023-04-20T12:00:08.621Z,61.03
2023-04-20T12:01:08.589Z,63.60
2023-04-20T12:02:08.701Z,61.67
2023-04-20T12:03:08.785Z,63.93
2023-04-20T12:04:08.828Z,63.98
2023-04-20T12:05:08.815Z,63.45
2023-04-20T12:06:08.554Z,64.21
2023-04-20T12:07:08.538Z,64.64
2023-04-20T12:08:08.569Z,64.14
2023-04-20T12:09:08.522Z,63.83
2023-04-20T12:10:08.526Z,63.98
2023-04-20T12:11:08.520Z,65.90
2023-04-20T12:12:08.518Z,65.25
2023-04-20T12:13:08.527Z,64.65
2023-04-20T12:14:08.485Z,64.25
2023-04-20T12:15:08.462Z,62.72
2023-04-20T12:16:08.546Z,63.37
2023-04-20T12:17:08.458Z,62.49
2023-04-20T12:18:08.490Z,63.52
2023-04-20T12:19:08.443Z,63.52
2023-04-20T12:20:08.440Z,63.17
2023-04-20T12:21:08.438Z,65.02
2023-04-20T12:22:08.428Z,63.73
2023-04-20T12:23:08.412Z,66.04
2023-04-20T12:24:08.492Z,64.82
2023-04-20T12:25:08.397Z,63.92
2023-04-20T12:26:08.395Z,63.22
2023-04-20T12:27:08.374Z,63.24
2023-04-20T12:28:08.373Z,64.31
2023-04-20T12:29:08.353Z,64.16
2023-04-20T12:30:08.370Z,63.29
2023-04-20T12:31:08.477Z,63.22
2023-04-20T12:32:08.360Z,63.05
2023-04-20T12:33:15.318Z,64.10
2023-04-20T12:34:08.334Z,64.77
2023-04-20T12:35:08.337Z,67.11
2023-04-20T12:36:08.311Z,65.20
2023-04-20T12:37:08.314Z,64.92
2023-04-20T12:38:08.307Z,64.32
2023-04-20T12:39:08.271Z,67.45
2023-04-20T12:40:08.300Z,64.82
2023-04-20T12:41:08.263Z,65.95
2023-04-20T12:42:08.277Z,67.68
2023-04-20T12:43:08.267Z,67.32
2023-04-20T12:44:10.691Z,64.31
2023-04-20T12:45:08.246Z,66.76
2023-04-20T12:46:08.265Z,65.50
2023-04-20T12:47:08.372Z,66.27
2023-04-20T12:48:08.243Z,65.60
2023-04-20T12:49:08.235Z,66.60
2023-04-20T12:50:08.225Z,65.35
2023-04-20T12:51:08.191Z,65.94
2023-04-20T12:52:08.322Z,65.19